Latest Weather Observations for Swanbourne

IDW60801

Issued at 1:02 am WST Tuesday 4 August 2015 (issued every 30 minutes, with the page automatically refreshed every 10 minutes)

About weather observations | Map of weather stations | Latest weather observations for WA | Other Formats
Station Details ID: 009215 Name: SWANBOURNE Lat: -31.96 Lon: 115.76 Height: 40.96 m
Data from the previous 72 hours. | See also: Recent months at Swanbourne
Date/Time
WST
Temp
°C
App
Temp
°C
Dew
Point
Rel
Hum
%
Delta-T
°C
Wind Press
QNH
hPa
Press
MSL
hPa
Rain
since 9 am
mm
Dir
 
Spd
km/h
Gust
km/h
Spd
kts
Gust
kts
04/01:00am 10.6 7.8 6.9 78 1.8 SE 11 15 6 8 - - 0.0
04/12:30am 10.6 8.2 6.9 78 1.8 SE 9 11 5 6 - - 0.0
04/12:00am 10.7 8.6 6.6 76 1.9 ESE 7 11 4 6 - - 0.0
 
Date/Time
WST
Temp
°C
App
Temp
°C
Dew
Point
Rel
Hum
%
Delta-T
°C
Wind Press
QNH
hPa
Press
MSL
hPa
Rain
since 9 am
mm
Dir
 
Spd
km/h
Gust
km/h
Spd
kts
Gust
kts
03/11:30pm 10.9 8.9 7.0 77 1.9 ESE 7 11 4 6 - - 0.0
03/11:00pm 11.1 9.0 6.8 75 2.0 SE 7 9 4 5 - - 0.0
03/10:30pm 11.5 9.4 6.8 73 2.2 SE 7 9 4 5 - - 0.0
03/10:00pm 11.6 9.7 6.5 71 2.4 SE 6 6 3 3 - - 0.0
03/09:30pm 11.9 10.0 6.6 70 2.5 ESE 6 9 3 5 - - 0.0
03/09:00pm 12.2 10.1 6.7 69 2.6 ESE 7 11 4 6 - - 0.0
03/08:30pm 12.5 10.4 6.5 67 2.9 E 7 11 4 6 - - 0.0
03/08:00pm 12.9 10.4 6.5 65 3.1 ESE 9 13 5 7 - - 0.0
03/07:30pm 13.4 10.5 6.5 63 3.3 E 11 17 6 9 - - 0.0
03/07:00pm 13.8 11.3 6.7 62 3.4 E 9 15 5 8 - - 0.0
03/06:30pm 14.1 11.2 6.5 60 3.7 ESE 11 17 6 9 - - 0.0
03/06:00pm 14.2 11.6 6.3 59 3.8 ESE 9 13 5 7 - - 0.0
03/05:30pm 14.9 12.4 6.5 57 4.1 ESE 9 13 5 7 - - 0.0
03/05:00pm 15.6 13.5 6.6 55 4.4 ESE 7 11 4 6 - - 0.0
03/04:30pm 16.5 14.4 6.6 52 4.9 ESE 7 15 4 8 - - 0.0
03/04:00pm 17.2 14.6 6.1 48 5.4 SE 9 17 5 9 - - 0.0
03/03:30pm 18.1 15.8 5.7 44 6.1 ESE 7 15 4 8 - - 0.0
03/03:00pm 17.7 15.3 5.3 44 6.0 ESE 7 13 4 7 - - 0.0
03/02:30pm 19.7 16.9 6.8 43 6.5 SE 11 17 6 9 - - 0.0
03/02:00pm 18.6 16.5 5.8 43 6.3 E 6 15 3 8 - - 0.0
03/01:30pm 17.8 14.8 6.0 46 5.8 E 11 17 6 9 - - 0.0
03/01:00pm 17.6 15.4 5.5 45 5.9 E 6 13 3 7 - - 0.0
03/12:30pm 17.4 14.3 5.4 45 5.8 ENE 11 20 6 11 - - 0.0
03/12:00pm 17.4 14.8 6.0 47 5.6 ESE 9 17 5 9 - - 0.0
03/11:30am 16.1 13.0 5.4 49 5.1 E 11 24 6 13 - - 0.0
03/11:00am 15.9 12.8 5.5 50 5.0 ESE 11 22 6 12 - - 0.0
03/10:30am 15.2 12.1 5.7 53 4.5 E 11 19 6 10 - - 0.0
03/10:00am 14.4 12.2 6.0 57 4.0 E 7 15 4 8 - - 0.0
03/09:30am 13.3 10.7 5.9 61 3.5 ENE 9 13 5 7 - - 0.0
03/09:00am 11.9 9.4 6.6 70 2.5 E 9 17 5 9 - - 0.0
03/08:30am 9.8 7.4 7.1 83 1.3 E 9 17 5 9 - - 0.0
03/08:00am 8.0 5.5 6.6 91 0.6 E 9 13 5 7 - - 0.0
03/07:30am 7.3 4.0 6.2 93 0.5 ESE 13 17 7 9 - - 0.0
03/07:00am 7.0 3.6 6.1 94 0.4 ESE 13 15 7 8 - - 0.0
03/06:30am 6.7 3.7 6.0 95 0.3 ESE 11 13 6 7 - - 0.0
03/06:00am 6.4 3.7 5.5 94 0.4 ESE 9 13 5 7 - - 0.0
03/05:30am 6.7 4.0 5.7 93 0.4 ESE 9 11 5 6 - - 0.0
03/05:00am 6.6 4.2 5.2 91 0.6 ESE 7 9 4 5 - - 0.0
03/04:30am 7.0 4.7 5.5 90 0.7 ESE 7 11 4 6 - - 0.0
03/04:00am 7.4 5.1 5.7 89 0.8 ESE 7 9 4 5 - - 0.0
03/03:30am 7.6 4.5 5.7 88 0.9 ESE 11 13 6 7 - - 0.0
03/03:00am 7.8 5.5 5.6 86 1.0 ESE 7 11 4 6 - - 0.0
03/02:30am 7.9 5.6 5.5 85 1.1 ESE 7 7 4 4 - - 0.0
03/02:00am 8.1 6.0 5.6 84 1.1 ESE 6 6 3 3 - - 0.0
03/01:30am 8.0 5.8 5.5 84 1.1 ESE 6 7 3 4 - - 0.0
03/01:00am 7.9 5.7 5.2 83 1.2 SE 6 6 3 3 - - 0.0
03/12:30am 8.5 6.1 5.4 81 1.4 ESE 7 11 4 6 - - 0.0
03/12:00am 8.6 6.2 5.4 80 1.4 ESE 7 9 4 5 - - 0.0
 
Date/Time
WST
Temp
°C
App
Temp
°C
Dew
Point
Rel
Hum
%
Delta-T
°C
Wind Press
QNH
hPa
Press
MSL
hPa
Rain
since 9 am
mm
Dir
 
Spd
km/h
Gust
km/h
Spd
kts
Gust
kts
02/11:30pm 8.8 6.5 5.5 80 1.5 SE 7 11 4 6 - - 0.0
02/11:00pm 9.3 6.6 5.5 77 1.7 ESE 9 11 5 6 - - 0.0
02/10:30pm 9.5 7.1 5.1 74 2.0 E 7 11 4 6 - - 0.0
02/10:00pm 10.0 7.3 5.8 75 1.9 E 9 13 5 7 - - 0.0
02/09:30pm 9.5 7.0 4.7 72 2.1 E 7 9 4 5 - - 0.0
02/09:00pm 10.4 8.0 5.2 70 2.4 E 7 11 4 6 - - 0.0
02/08:30pm 10.2 7.4 5.0 70 2.4 E 9 11 5 6 - - 0.0
02/08:00pm 10.6 7.8 5.2 69 2.5 E 9 11 5 6 - - 0.0
02/07:30pm 10.5 8.0 4.9 68 2.5 E 7 11 4 6 - - 0.0
02/07:00pm 11.1 8.2 4.8 65 2.9 E 9 11 5 6 - - 0.0
02/06:30pm 11.6 8.7 4.8 63 3.1 E 9 11 5 6 - - 0.0
02/06:00pm 12.6 9.7 4.8 59 3.6 E 9 11 5 6 - - 0.0
02/05:30pm 14.1 11.6 4.9 54 4.3 E 7 13 4 7 - - 0.0
02/05:00pm 15.4 12.5 4.8 49 5.0 E 9 15 5 8 - - 0.0
02/04:30pm 16.2 13.3 4.6 46 5.5 E 9 15 5 8 - - 0.0
02/04:00pm 16.7 13.8 4.4 44 5.8 E 9 20 5 11 - - 0.0
02/03:30pm 16.9 13.2 4.3 43 5.9 E 13 20 7 11 - - 0.0
02/03:00pm 17.1 13.8 4.8 44 5.9 ESE 11 17 6 9 - - 0.0
02/02:30pm 17.2 13.8 3.8 41 6.3 ESE 11 22 6 12 - - 0.0
02/02:00pm 17.1 13.8 4.4 43 6.0 SE 11 19 6 10 - - 0.0
02/01:30pm 16.8 13.5 4.8 45 5.7 ESE 11 19 6 10 - - 0.0
02/01:00pm 16.6 12.9 4.6 45 5.7 SE 13 20 7 11 - - 0.0
02/12:30pm 16.4 13.6 5.1 47 5.4 ESE 9 17 5 9 - - 0.0
02/12:00pm 15.3 12.0 4.4 48 5.1 ESE 11 19 6 10 - - 0.0
02/11:30am 14.5 10.8 4.5 51 4.6 ESE 13 19 7 10 - - 0.0
02/11:00am 13.8 10.0 3.9 51 4.5 E 13 20 7 11 - - 0.0
02/10:30am 13.4 10.4 4.3 54 4.2 E 9 19 5 10 - - 0.0
02/10:00am 12.7 9.4 4.4 57 3.8 ESE 11 20 6 11 - - 0.0
02/09:30am 11.8 8.5 4.3 60 3.4 ESE 11 17 6 9 - - 0.0
02/09:00am 11.2 8.8 5.1 66 2.8 ESE 7 11 4 6 - - 0.0
02/08:30am 10.0 7.8 5.4 73 2.1 ESE 6 9 3 5 - - 0.0
02/08:00am 9.0 6.7 5.6 79 1.5 ESE 7 9 4 5 - - 0.0
02/07:30am 8.4 6.3 5.7 83 1.2 ESE 6 9 3 5 - - 0.0
02/07:00am 8.2 6.1 5.8 85 1.1 ESE 6 7 3 4 - - 0.0
02/06:30am 7.9 5.6 5.9 87 0.9 ESE 7 11 4 6 - - 0.0
02/06:00am 7.3 5.0 5.6 89 0.8 ESE 7 9 4 5 - - 0.0
02/05:30am 7.0 4.7 5.5 90 0.7 ESE 7 13 4 7 - - 0.0
02/05:00am 6.3 4.0 4.6 89 0.7 ESE 6 7 3 4 - - 0.0
02/04:30am 6.8 4.5 5.0 88 0.8 ESE 6 7 3 4 - - 0.0
02/04:00am 7.1 4.8 4.8 85 1.0 ESE 6 7 3 4 - - 0.0
02/03:30am 7.9 5.4 5.0 82 1.3 ESE 7 9 4 5 - - 0.0
02/03:00am 8.4 6.0 5.3 81 1.4 SE 7 9 4 5 - - 0.0
02/02:30am 8.4 6.0 5.3 81 1.4 ESE 7 9 4 5 - - 0.0
02/02:00am 7.8 5.5 4.9 82 1.3 ESE 6 7 3 4 - - 0.0
02/01:30am 7.8 5.3 4.9 82 1.3 SE 7 9 4 5 - - 0.0
02/01:00am 8.0 5.5 4.9 81 1.4 SE 7 7 4 4 - - 0.0
02/12:30am 8.1 5.8 4.9 80 1.4 ESE 6 7 3 4 - - 0.0
02/12:00am 8.5 6.2 4.7 77 1.7 ESE 6 7 3 4 - - 0.0
 
Date/Time
WST
Temp
°C
App
Temp
°C
Dew
Point
Rel
Hum
%
Delta-T
°C
Wind Press
QNH
hPa
Press
MSL
hPa
Rain
since 9 am
mm
Dir
 
Spd
km/h
Gust
km/h
Spd
kts
Gust
kts
01/11:30pm 8.7 6.2 4.7 76 1.8 ESE 7 9 4 5 - - 0.0
01/11:00pm 9.1 6.7 4.5 73 2.0 SE 6 7 3 4 - - 0.0
01/10:30pm 9.4 7.0 4.4 71 2.2 ESE 6 7 3 4 - - 0.0
01/10:00pm 9.7 7.2 4.5 70 2.3 SE 7 7 4 4 - - 0.0
01/09:30pm 10.1 7.7 4.5 68 2.5 ESE 6 9 3 5 - - 0.0
01/09:00pm 10.8 8.3 4.5 65 2.8 ESE 7 11 4 6 - - 0.0
01/08:30pm 10.8 8.3 4.5 65 2.8 SE 7 13 4 7 - - 0.0
01/08:00pm 11.4 8.8 4.2 61 3.2 SE 7 13 4 7 - - 0.0
01/07:30pm 12.2 8.8 3.9 57 3.7 ESE 11 17 6 9 - - 0.0
01/07:00pm 12.9 9.2 4.3 56 3.9 SE 13 20 7 11 - - 0.0
01/06:30pm 13.4 9.7 4.6 55 4.1 SE 13 22 7 12 - - 0.0
01/06:00pm 14.0 9.9 4.6 53 4.4 SE 15 22 8 12 - - 0.0
01/05:30pm 14.3 10.7 5.1 54 4.3 SE 13 24 7 13 - - 0.0
01/05:00pm 14.8 11.3 5.6 54 4.4 SE 13 24 7 13 - - 0.0
01/04:30pm 15.5 11.6 5.4 51 4.8 ESE 15 28 8 15 - - 0.0
01/04:00pm 15.9 11.7 5.8 51 4.9 ESE 17 28 9 15 - - 0.0
01/03:30pm 16.4 12.8 6.8 53 4.7 SE 15 22 8 12 - - 0.0
01/03:00pm 17.3 13.3 6.8 50 5.2 SE 17 24 9 13 - - 0.0
01/02:30pm 17.6 13.8 7.6 52 5.1 SSE 17 28 9 15 - - 0.0
01/02:00pm 17.8 13.8 6.7 48 5.5 SE 17 26 9 14 - - 0.0
01/01:30pm 18.4 14.2 7.5 49 5.5 SE 19 30 10 16 - - 0.0
01/01:00pm 18.1 14.7 7.5 50 5.4 SE 15 24 8 13 - - 0.0
01/12:30pm 17.3 13.8 7.4 52 5.0 SE 15 26 8 14 - - 0.0
01/12:00pm 17.7 14.2 7.2 50 5.3 ESE 15 28 8 15 - - 0.0
01/11:30am 17.1 12.9 7.5 53 4.8 ESE 19 35 10 19 - - 0.0
01/11:00am 15.9 10.9 6.6 54 4.6 SE 22 33 12 18 - - 0.0
01/10:30am 15.3 10.8 7.1 58 4.0 SE 20 37 11 20 - - 0.0
01/10:00am 15.0 11.2 7.5 61 3.7 ESE 17 28 9 15 - - 0.0
01/09:30am 14.3 10.2 7.8 65 3.2 SE 19 33 10 18 - - 0.0
01/09:00am 13.0 8.7 7.7 70 2.6 SE 20 37 11 20 - - 0.4
01/08:30am 13.0 10.1 8.1 72 2.4 SE 13 24 7 13 - - 0.4
01/08:00am 12.3 9.5 8.4 77 1.9 SSE 13 20 7 11 - - 0.4
01/07:30am 10.9 8.4 8.0 82 1.4 SE 11 17 6 9 - - 0.4
01/07:00am 10.4 8.0 7.1 80 1.6 SE 9 17 5 9 - - 0.4
01/06:30am 10.8 8.0 6.9 77 1.9 SSE 11 17 6 9 - - 0.4
01/06:00am 11.4 7.9 7.1 75 2.1 SE 15 26 8 14 - - 0.4
01/05:30am 11.8 8.2 6.9 72 2.3 SE 15 30 8 16 - - 0.4
01/05:00am 11.9 8.8 7.2 73 2.3 SE 13 28 7 15 - - 0.4
01/04:30am 12.0 7.8 7.3 73 2.3 SE 19 30 10 16 - - 0.4
01/04:00am 11.9 7.7 7.4 74 2.2 ESE 19 37 10 20 - - 0.4
01/03:30am 12.0 7.7 7.7 75 2.1 ESE 20 37 11 20 - - 0.4
01/03:00am 12.2 7.5 7.7 74 2.2 ESE 22 33 12 18 - - 0.4
01/02:30am 12.5 6.6 7.6 72 2.4 ESE 28 43 15 23 - - 0.4
01/02:00am 12.5 7.9 8.0 74 2.2 ESE 22 43 12 23 - - 0.4
01/01:30am 12.8 7.9 8.3 74 2.2 ESE 24 39 13 21 - - 0.4

Other Formats:

Comma delimited format used in spreadsheet applications
http://www.bom.gov.au/fwo/IDW60801/IDW60801.94614.axf

JavaScript Object Notation format (JSON) in row-major order
http://www.bom.gov.au/fwo/IDW60801/IDW60801.94614.json